Terminal Aerodrome Forecast
Issued by NWS Wilmington, NC

Home | Current Version | Previous Version | Text Only | Print | Product List | Glossary On
Versions: 1 2 3 4 5 6 7 8 9 10 11 12 13 14 15 16
000
FTUS42 KILM 291731
TAFMYR
TAF
KMYR 291731Z 2918/3018 04012KT P6SM FEW035
     FM292000 13009KT P6SM FEW250
     FM300600 13002KT 5SM BR SCT250
     FM300900 18004KT 4SM BR BKN001
     FM301400 12007KT P6SM SCT020 SCT250=

USA.gov is the U.S. government's official web portal to all federal, state and local government web resources and services.